createdAt,value
2022-07-25T00:00:08.774Z,0.00
2022-07-25T00:01:09.005Z,0.00
2022-07-25T00:02:09.009Z,0.00
2022-07-25T00:03:10.239Z,0.00
2022-07-25T00:04:09.473Z,0.00
2022-07-25T00:05:08.984Z,0.00
2022-07-25T00:06:30.706Z,0.00
2022-07-25T00:07:08.497Z,0.00
2022-07-25T00:08:08.739Z,0.00
2022-07-25T00:09:08.478Z,0.00
2022-07-25T00:10:08.737Z,0.00
2022-07-25T00:11:08.477Z,0.00
2022-07-25T00:12:08.703Z,0.00
2022-07-25T00:13:08.448Z,0.00
2022-07-25T00:14:09.151Z,0.00
2022-07-25T00:15:08.439Z,0.00
2022-07-25T00:16:29.745Z,0.00
2022-07-25T00:17:08.491Z,0.00
2022-07-25T00:18:08.739Z,0.00
2022-07-25T00:19:08.459Z,0.00
2022-07-25T00:20:08.733Z,0.00
2022-07-25T00:21:08.440Z,0.00
2022-07-25T00:22:08.700Z,0.00
2022-07-25T00:23:08.448Z,0.00
2022-07-25T00:24:09.337Z,0.00
2022-07-25T00:25:08.442Z,0.00
2022-07-25T00:26:30.657Z,0.00
2022-07-25T00:27:08.488Z,0.00
2022-07-25T00:28:08.684Z,0.00
2022-07-25T00:29:08.429Z,0.00
2022-07-25T00:30:08.670Z,0.00
2022-07-25T00:31:08.626Z,0.00
2022-07-25T00:32:08.633Z,0.00
2022-07-25T00:33:08.414Z,0.00
2022-07-25T00:34:09.024Z,0.00
2022-07-25T00:35:08.348Z,0.00
2022-07-25T00:36:28.601Z,0.00
2022-07-25T00:37:08.330Z,0.00
2022-07-25T00:38:08.568Z,0.00
2022-07-25T00:39:08.318Z,0.00
2022-07-25T00:40:08.560Z,0.00
2022-07-25T00:41:08.425Z,0.00
2022-07-25T00:42:08.600Z,0.00
2022-07-25T00:43:08.319Z,0.00
2022-07-25T00:44:09.065Z,0.00
2022-07-25T00:45:08.292Z,0.00
2022-07-25T00:46:28.652Z,0.00
2022-07-25T00:47:08.281Z,0.00
2022-07-25T00:48:08.517Z,0.00
2022-07-25T00:49:08.349Z,0.00
2022-07-25T00:50:08.480Z,0.00
2022-07-25T00:51:08.202Z,0.00
2022-07-25T00:52:08.483Z,0.00
2022-07-25T00:53:08.182Z,0.00
2022-07-25T00:54:08.922Z,0.00
2022-07-25T00:55:08.162Z,0.00
2022-07-25T00:56:28.411Z,0.00
2022-07-25T00:57:08.136Z,0.00
2022-07-25T00:58:08.384Z,0.00
2022-07-25T00:59:08.105Z,0.00
2022-07-25T01:00:08.346Z,0.00
2022-07-25T01:01:08.141Z,0.00
2022-07-25T01:02:08.365Z,0.00
2022-07-25T01:03:08.133Z,0.00
2022-07-25T01:04:08.554Z,0.00
2022-07-25T01:05:08.045Z,0.00
2022-07-25T01:06:28.285Z,0.00
2022-07-25T01:07:08.017Z,0.00
2022-07-25T01:08:09.212Z,0.00
2022-07-25T01:09:08.015Z,0.00
2022-07-25T01:10:08.248Z,0.00
2022-07-25T01:11:07.999Z,0.00
2022-07-25T01:12:08.225Z,0.00
2022-07-25T01:13:07.948Z,0.00
2022-07-25T01:14:08.460Z,0.00
2022-07-25T01:15:07.940Z,0.00
2022-07-25T01:16:28.218Z,0.00
2022-07-25T01:17:07.907Z,0.00
2022-07-25T01:18:08.152Z,0.00
2022-07-25T01:19:07.890Z,0.00
2022-07-25T01:20:08.135Z,0.00
2022-07-25T01:21:07.858Z,0.00
2022-07-25T01:22:08.101Z,0.00
2022-07-25T01:23:07.833Z,0.00
2022-07-25T01:24:08.511Z,0.00
2022-07-25T01:25:07.804Z,0.00
2022-07-25T01:26:28.052Z,0.00
2022-07-25T01:27:07.792Z,0.00
2022-07-25T01:28:09.046Z,0.00
2022-07-25T01:29:07.775Z,0.00
2022-07-25T01:30:08.006Z,0.00
2022-07-25T01:31:07.795Z,0.00
2022-07-25T01:32:07.993Z,0.00
2022-07-25T01:33:07.756Z,0.00
2022-07-25T01:34:08.241Z,0.00
2022-07-25T01:35:07.694Z,0.00
2022-07-25T01:36:27.946Z,0.00
2022-07-25T01:37:07.675Z,0.00
2022-07-25T01:38:07.917Z,0.00
2022-07-25T01:39:07.664Z,0.00
2022-07-25T01:40:08.888Z,0.00
2022-07-25T01:41:07.633Z,0.00
2022-07-25T01:42:07.882Z,0.00
2022-07-25T01:43:07.617Z,0.00
2022-07-25T01:44:08.376Z,0.00
2022-07-25T01:45:07.596Z,0.00
2022-07-25T01:46:28.023Z,0.00
2022-07-25T01:47:07.612Z,0.00
2022-07-25T01:48:08.778Z,0.00
2022-07-25T01:49:07.627Z,0.00
2022-07-25T01:50:07.804Z,0.00
2022-07-25T01:51:07.530Z,0.00
2022-07-25T01:52:07.772Z,0.00
2022-07-25T01:53:07.504Z,0.00
2022-07-25T01:54:10.174Z,0.00
2022-07-25T01:55:07.500Z,0.00
2022-07-25T01:56:27.752Z,0.00
2022-07-25T01:57:07.474Z,0.00
2022-07-25T01:58:07.934Z,0.00
2022-07-25T01:59:07.447Z,0.00
2022-07-25T02:00:08.635Z,0.00
2022-07-25T02:01:07.517Z,0.00
2022-07-25T02:02:07.711Z,0.00
2022-07-25T02:03:07.479Z,0.00
2022-07-25T02:04:08.240Z,0.00
2022-07-25T02:05:07.595Z,0.00
2022-07-25T02:06:27.763Z,0.00
2022-07-25T02:07:07.533Z,0.00
2022-07-25T02:08:08.277Z,0.00
2022-07-25T02:09:07.596Z,0.00
2022-07-25T02:10:07.347Z,0.00
2022-07-25T02:11:07.661Z,0.00
2022-07-25T02:12:07.422Z,0.00
2022-07-25T02:13:07.694Z,0.00
2022-07-25T02:14:07.916Z,0.00
2022-07-25T02:15:07.238Z,0.00
2022-07-25T02:16:29.183Z,0.00
2022-07-25T02:17:07.372Z,0.00
2022-07-25T02:18:07.566Z,0.00
2022-07-25T02:19:07.371Z,0.00
2022-07-25T02:20:08.047Z,0.00
2022-07-25T02:21:14.371Z,0.00
2022-07-25T02:22:08.167Z,0.00
2022-07-25T02:23:07.447Z,0.00
2022-07-25T02:24:07.715Z,0.00
2022-07-25T02:25:07.499Z,0.00
2022-07-25T02:26:27.250Z,0.00
2022-07-25T02:27:07.519Z,0.00
2022-07-25T02:28:08.261Z,0.00
2022-07-25T02:29:07.089Z,0.00
2022-07-25T02:30:08.307Z,0.00
2022-07-25T02:31:07.148Z,0.00
2022-07-25T02:32:07.314Z,0.00
2022-07-25T02:33:07.078Z,0.00
2022-07-25T02:34:07.810Z,0.00
2022-07-25T02:35:13.019Z,0.00
2022-07-25T02:36:28.297Z,0.00
2022-07-25T02:37:07.039Z,0.00
2022-07-25T02:38:07.268Z,0.00
2022-07-25T02:39:07.008Z,0.00
2022-07-25T02:40:07.256Z,0.00
2022-07-25T02:41:06.988Z,0.00
2022-07-25T02:42:07.228Z,0.00
2022-07-25T02:43:06.981Z,0.00
2022-07-25T02:44:07.675Z,0.00
2022-07-25T02:45:06.962Z,0.00
2022-07-25T02:46:27.284Z,0.00
2022-07-25T02:47:06.952Z,0.00
2022-07-25T02:48:07.181Z,0.00
2022-07-25T02:49:06.987Z,0.00
2022-07-25T02:50:07.157Z,0.00
2022-07-25T02:51:06.892Z,0.00
2022-07-25T02:52:07.130Z,0.00
2022-07-25T02:53:06.865Z,0.00
2022-07-25T02:54:07.097Z,0.00
2022-07-25T02:55:09.699Z,0.00
2022-07-25T02:56:29.823Z,0.00
2022-07-25T02:57:06.819Z,0.00
2022-07-25T02:58:08.011Z,0.00
2022-07-25T02:59:06.803Z,0.00
2022-07-25T03:00:08.000Z,0.00
2022-07-25T03:01:06.933Z,0.00
2022-07-25T03:02:07.035Z,0.00
2022-07-25T03:03:06.776Z,0.00
2022-07-25T03:04:07.399Z,0.00
2022-07-25T03:05:06.761Z,0.00
2022-07-25T03:06:27.062Z,1.00
2022-07-25T03:07:06.729Z,1.00
2022-07-25T03:08:07.801Z,1.00
2022-07-25T03:09:06.720Z,1.00
2022-07-25T03:10:10.940Z,1.00
2022-07-25T03:11:06.698Z,1.00
2022-07-25T03:12:06.955Z,1.00
2022-07-25T03:13:06.697Z,1.00
2022-07-25T03:14:07.345Z,0.00
2022-07-25T03:15:06.689Z,0.00
2022-07-25T03:16:27.048Z,2.00
2022-07-25T03:17:06.733Z,2.00
2022-07-25T03:18:06.928Z,2.00
2022-07-25T03:19:06.650Z,4.00
2022-07-25T03:20:07.860Z,0.00
2022-07-25T03:21:06.654Z,0.00
2022-07-25T03:22:06.901Z,4.00
2022-07-25T03:23:06.629Z,0.00
2022-07-25T03:24:07.170Z,2.00
2022-07-25T03:25:06.630Z,6.00
2022-07-25T03:26:27.885Z,5.00
2022-07-25T03:27:06.601Z,1.00
2022-07-25T03:28:07.696Z,11.00
2022-07-25T03:29:06.592Z,5.00
2022-07-25T03:30:06.825Z,7.00
2022-07-25T03:31:06.574Z,3.00
2022-07-25T03:32:06.857Z,6.00
2022-07-25T03:33:06.564Z,10.00
2022-07-25T03:34:07.419Z,6.00
2022-07-25T03:35:06.566Z,8.00
2022-07-25T03:36:26.818Z,10.00
2022-07-25T03:37:06.537Z,13.00
2022-07-25T03:38:07.739Z,15.00
2022-07-25T03:39:06.541Z,18.00
2022-07-25T03:40:06.316Z,23.00
2022-07-25T03:41:06.550Z,26.00
2022-07-25T03:42:06.289Z,30.00
2022-07-25T03:43:06.529Z,35.00
2022-07-25T03:44:06.648Z,41.00
2022-07-25T03:45:06.524Z,44.00
2022-07-25T03:46:26.368Z,48.00
2022-07-25T03:47:06.498Z,50.00
2022-07-25T03:48:06.236Z,51.00
2022-07-25T03:49:06.574Z,53.00
2022-07-25T03:50:06.222Z,53.00
2022-07-25T03:51:07.242Z,54.00
2022-07-25T03:52:06.181Z,55.00
2022-07-25T03:53:06.435Z,54.00
2022-07-25T03:54:06.640Z,55.00
2022-07-25T03:55:06.440Z,56.00
2022-07-25T03:56:26.199Z,57.00
2022-07-25T03:57:06.413Z,59.00
2022-07-25T03:58:06.162Z,64.00
2022-07-25T03:59:06.410Z,71.00
2022-07-25T04:00:06.155Z,74.00
2022-07-25T04:01:06.505Z,83.00
2022-07-25T04:02:06.217Z,89.00
2022-07-25T04:03:06.388Z,81.00
2022-07-25T04:04:06.466Z,86.00
2022-07-25T04:05:06.363Z,93.00
2022-07-25T04:06:26.117Z,98.00
2022-07-25T04:07:06.337Z,97.00
2022-07-25T04:08:07.018Z,104.00
2022-07-25T04:09:06.341Z,114.00
2022-07-25T04:10:06.097Z,130.00
2022-07-25T04:11:06.331Z,151.00
2022-07-25T04:12:06.066Z,162.00
2022-07-25T04:13:06.318Z,180.00
2022-07-25T04:14:06.533Z,189.00
2022-07-25T04:15:06.301Z,191.00
2022-07-25T04:16:27.872Z,203.00
2022-07-25T04:17:06.474Z,208.00
2022-07-25T04:18:06.312Z,219.00
2022-07-25T04:19:06.399Z,228.00
2022-07-25T04:20:07.384Z,242.00
2022-07-25T04:21:05.877Z,253.00
2022-07-25T04:22:06.124Z,272.00
2022-07-25T04:23:05.936Z,291.00
2022-07-25T04:24:06.558Z,302.00
2022-07-25T04:25:05.873Z,324.00
2022-07-25T04:26:28.161Z,350.00
2022-07-25T04:27:05.914Z,362.00
2022-07-25T04:28:07.096Z,373.00
2022-07-25T04:29:05.254Z,384.00
2022-07-25T04:30:05.989Z,389.00
2022-07-25T04:31:05.739Z,369.00
2022-07-25T04:32:06.027Z,347.00
2022-07-25T04:33:05.713Z,326.00
2022-07-25T04:34:06.289Z,372.00
2022-07-25T04:35:05.705Z,428.00
2022-07-25T04:36:27.956Z,458.00
2022-07-25T04:37:05.755Z,474.00
2022-07-25T04:38:11.700Z,488.00
2022-07-25T04:39:06.759Z,534.00
2022-07-25T04:40:06.000Z,559.00
2022-07-25T04:41:05.739Z,597.00
2022-07-25T04:42:05.976Z,626.00
2022-07-25T04:43:05.708Z,655.00
2022-07-25T04:44:06.410Z,704.00
2022-07-25T04:45:05.691Z,729.00
2022-07-25T04:46:27.940Z,772.00
2022-07-25T04:47:05.717Z,780.00
2022-07-25T04:48:06.907Z,794.00
2022-07-25T04:49:05.796Z,806.00
2022-07-25T04:50:05.960Z,764.00
2022-07-25T04:51:05.690Z,677.00
2022-07-25T04:52:05.938Z,697.00
2022-07-25T04:53:05.680Z,765.00
2022-07-25T04:54:06.330Z,746.00
2022-07-25T04:55:05.650Z,790.00
2022-07-25T04:56:27.913Z,880.00
2022-07-25T04:57:05.935Z,818.00
2022-07-25T04:58:05.735Z,864.00
2022-07-25T04:59:06.689Z,910.00
2022-07-25T05:00:07.163Z,846.00
2022-07-25T05:01:05.549Z,872.00
2022-07-25T05:02:05.727Z,920.00
2022-07-25T05:03:05.444Z,954.00
2022-07-25T05:04:05.974Z,945.00
2022-07-25T05:05:05.416Z,942.00
2022-07-25T05:06:27.677Z,939.00
2022-07-25T05:07:05.454Z,943.00
2022-07-25T05:08:05.706Z,932.00
2022-07-25T05:09:05.442Z,956.00
2022-07-25T05:10:05.698Z,968.00
2022-07-25T05:11:05.431Z,925.00
2022-07-25T05:12:05.677Z,911.00
2022-07-25T05:13:05.418Z,958.00
2022-07-25T05:14:05.965Z,973.00
2022-07-25T05:15:05.380Z,958.00
2022-07-25T05:16:27.667Z,942.00
2022-07-25T05:17:05.409Z,984.00
2022-07-25T05:18:05.661Z,1012.00
2022-07-25T05:19:05.404Z,1043.00
2022-07-25T05:20:05.628Z,1088.00
2022-07-25T05:21:05.382Z,1134.00
2022-07-25T05:22:05.632Z,1139.00
2022-07-25T05:23:05.372Z,1163.00
2022-07-25T05:24:05.911Z,1181.00
2022-07-25T05:25:05.356Z,1214.00
2022-07-25T05:26:27.657Z,1279.00
2022-07-25T05:27:05.598Z,1316.00
2022-07-25T05:28:05.403Z,1364.00
2022-07-25T05:29:05.648Z,1419.00
2022-07-25T05:30:05.373Z,1433.00
2022-07-25T05:31:05.149Z,1439.00
2022-07-25T05:32:05.346Z,1414.00
2022-07-25T05:33:05.103Z,1438.00
2022-07-25T05:34:05.597Z,1528.00
2022-07-25T05:35:05.566Z,1540.00
2022-07-25T05:36:26.054Z,1454.00
2022-07-25T05:37:05.120Z,1370.00
2022-07-25T05:38:05.363Z,1341.00
2022-07-25T05:39:05.104Z,1294.00
2022-07-25T05:40:05.356Z,1584.00
2022-07-25T05:41:05.089Z,1595.00
2022-07-25T05:42:05.339Z,1533.00
2022-07-25T05:43:05.086Z,1575.00
2022-07-25T05:44:05.608Z,1648.00
2022-07-25T05:45:05.070Z,1412.00
2022-07-25T05:46:26.387Z,1551.00
2022-07-25T05:47:05.184Z,1490.00
2022-07-25T05:48:05.339Z,1457.00
2022-07-25T05:49:05.189Z,1502.00
2022-07-25T05:50:05.351Z,1441.00
2022-07-25T05:51:05.099Z,1429.00
2022-07-25T05:52:08.263Z,1453.00
2022-07-25T05:53:06.105Z,1471.00
2022-07-25T05:54:05.728Z,1485.00
2022-07-25T05:55:05.075Z,1507.00
2022-07-25T05:56:26.454Z,1511.00
2022-07-25T05:57:05.264Z,1506.00
2022-07-25T05:58:05.001Z,1496.00
2022-07-25T05:59:05.246Z,1476.00
2022-07-25T06:00:04.999Z,1452.00
2022-07-25T06:01:05.234Z,1439.00
2022-07-25T06:02:05.094Z,1389.00
2022-07-25T06:03:05.405Z,1320.00
2022-07-25T06:04:05.266Z,1252.00
2022-07-25T06:05:05.212Z,1208.00
2022-07-25T06:06:26.948Z,1125.00
2022-07-25T06:07:05.226Z,1118.00
2022-07-25T06:08:04.981Z,1101.00
2022-07-25T06:09:07.806Z,1075.00
2022-07-25T06:10:04.972Z,1090.00
2022-07-25T06:11:04.715Z,1122.00
2022-07-25T06:12:04.955Z,1161.00
2022-07-25T06:13:04.742Z,1242.00
2022-07-25T06:14:05.286Z,1363.00
2022-07-25T06:15:04.679Z,1499.00
2022-07-25T06:16:29.026Z,1716.00
2022-07-25T06:17:04.733Z,1792.00
2022-07-25T06:18:04.963Z,1903.00
2022-07-25T06:19:04.725Z,2025.00
2022-07-25T06:20:04.953Z,2166.00
2022-07-25T06:21:04.696Z,2270.00
2022-07-25T06:22:04.932Z,2309.00
2022-07-25T06:23:04.683Z,2293.00
2022-07-25T06:24:05.239Z,2342.00
2022-07-25T06:25:04.683Z,2318.00
2022-07-25T06:26:26.125Z,2265.00
2022-07-25T06:27:04.895Z,2379.00
2022-07-25T06:28:04.644Z,2373.00
2022-07-25T06:29:04.867Z,2297.00
2022-07-25T06:30:04.642Z,2376.00
2022-07-25T06:31:04.934Z,2515.00
2022-07-25T06:32:04.596Z,2412.00
2022-07-25T06:33:04.845Z,2054.00
2022-07-25T06:34:04.874Z,2267.00
2022-07-25T06:35:04.840Z,2249.00
2022-07-25T06:36:32.721Z,2119.00
2022-07-25T06:37:05.878Z,2030.00
2022-07-25T06:38:04.681Z,1965.00
2022-07-25T06:39:04.472Z,1700.00
2022-07-25T06:40:04.659Z,1769.00
2022-07-25T06:41:04.419Z,1777.00
2022-07-25T06:42:04.677Z,1746.00
2022-07-25T06:43:04.427Z,1684.00
2022-07-25T06:44:04.937Z,1614.00
2022-07-25T06:45:04.391Z,1557.00
2022-07-25T06:46:26.701Z,1528.00
2022-07-25T06:47:04.447Z,1550.00
2022-07-25T06:48:04.668Z,1559.00
2022-07-25T06:49:04.433Z,1576.00
2022-07-25T06:50:04.654Z,1585.00
2022-07-25T06:51:04.394Z,1594.00
2022-07-25T06:52:04.663Z,1551.00
2022-07-25T06:53:04.393Z,1496.00
2022-07-25T06:54:05.025Z,1453.00
2022-07-25T06:55:06.346Z,1437.00
2022-07-25T06:56:26.635Z,1389.00
2022-07-25T06:57:04.424Z,1342.00
2022-07-25T06:58:04.654Z,1279.00
2022-07-25T06:59:04.411Z,1239.00
2022-07-25T07:00:04.649Z,1195.00
2022-07-25T07:01:04.413Z,1139.00
2022-07-25T07:02:04.631Z,1104.00
2022-07-25T07:03:04.413Z,1104.00
2022-07-25T07:04:05.015Z,1120.00
2022-07-25T07:05:04.350Z,1160.00
2022-07-25T07:06:24.610Z,1300.00
2022-07-25T07:07:04.331Z,1418.00
2022-07-25T07:08:04.578Z,1642.00
2022-07-25T07:09:04.317Z,1886.00
2022-07-25T07:10:04.568Z,2164.00
2022-07-25T07:11:04.314Z,2477.00
2022-07-25T07:12:04.551Z,2827.00
2022-07-25T07:13:04.303Z,3230.00
2022-07-25T07:14:04.981Z,3552.00
2022-07-25T07:15:04.294Z,3855.00
2022-07-25T07:16:24.615Z,4011.00
2022-07-25T07:17:04.297Z,3895.00
2022-07-25T07:18:04.535Z,3542.00
2022-07-25T07:19:04.804Z,3097.00
2022-07-25T07:20:04.057Z,2662.00
2022-07-25T07:21:04.307Z,2508.00
2022-07-25T07:22:04.061Z,2462.00
2022-07-25T07:23:04.312Z,2425.00
2022-07-25T07:24:04.085Z,2381.00
2022-07-25T07:25:05.306Z,2341.00
2022-07-25T07:26:24.064Z,2167.00
2022-07-25T07:27:03.430Z,2064.00
2022-07-25T07:28:04.161Z,2010.00
2022-07-25T07:29:04.770Z,2007.00
2022-07-25T07:30:04.146Z,2122.00
2022-07-25T07:31:16.372Z,2300.00
2022-07-25T07:32:05.203Z,2541.00
2022-07-25T07:33:03.901Z,2742.00
2022-07-25T07:34:04.148Z,2851.00
2022-07-25T07:35:03.891Z,2979.00
2022-07-25T07:36:24.149Z,3247.00
2022-07-25T07:37:03.869Z,3310.00
2022-07-25T07:38:04.118Z,3225.00
2022-07-25T07:39:04.177Z,3312.00
2022-07-25T07:40:04.102Z,3450.00
2022-07-25T07:41:03.839Z,3723.00
2022-07-25T07:42:04.114Z,4074.00
2022-07-25T07:43:03.833Z,4719.00
2022-07-25T07:44:04.064Z,4465.00
2022-07-25T07:45:03.811Z,5335.00
2022-07-25T07:46:24.122Z,6049.00
2022-07-25T07:47:03.876Z,6148.00
2022-07-25T07:48:04.050Z,6181.00
2022-07-25T07:49:04.412Z,5786.00
2022-07-25T07:50:04.034Z,5629.00
2022-07-25T07:51:03.808Z,5587.00
2022-07-25T07:52:04.046Z,5883.00
2022-07-25T07:53:03.798Z,6242.00
2022-07-25T07:54:04.035Z,6061.00
2022-07-25T07:55:03.790Z,6186.00
2022-07-25T07:56:24.069Z,6217.00
2022-07-25T07:57:03.786Z,6130.00
2022-07-25T07:58:04.026Z,6360.00
2022-07-25T07:59:04.181Z,6163.00
2022-07-25T08:00:04.023Z,6373.00
2022-07-25T08:01:03.759Z,6714.00
2022-07-25T08:02:04.058Z,7205.00
2022-07-25T08:03:03.843Z,7640.00
2022-07-25T08:04:03.970Z,8177.00
2022-07-25T08:05:03.725Z,7620.00
2022-07-25T08:06:23.981Z,7609.00
2022-07-25T08:07:03.701Z,7470.00
2022-07-25T08:08:03.949Z,7751.00
2022-07-25T08:09:04.058Z,8206.00
2022-07-25T08:10:03.940Z,8243.00
2022-07-25T08:11:03.706Z,8116.00
2022-07-25T08:12:03.940Z,7712.00
2022-07-25T08:13:03.695Z,7293.00
2022-07-25T08:14:04.340Z,6921.00
2022-07-25T08:15:03.685Z,6714.00
2022-07-25T08:16:23.970Z,6586.00
2022-07-25T08:17:03.670Z,6749.00
2022-07-25T08:18:03.429Z,6463.00
2022-07-25T08:19:03.677Z,6270.00
2022-07-25T08:20:20.923Z,6375.00
2022-07-25T08:21:04.647Z,6744.00
2022-07-25T08:22:03.887Z,6934.00
2022-07-25T08:23:03.629Z,7161.00
2022-07-25T08:24:03.664Z,7843.00
2022-07-25T08:25:03.631Z,8859.00
2022-07-25T08:26:23.389Z,9312.00
2022-07-25T08:27:03.615Z,9371.00
2022-07-25T08:28:03.855Z,9475.00
2022-07-25T08:29:18.649Z,9438.00
2022-07-25T08:30:04.342Z,9108.00
2022-07-25T08:31:03.627Z,8431.00
2022-07-25T08:32:03.327Z,7810.00
2022-07-25T08:33:03.586Z,7675.00
2022-07-25T08:34:03.441Z,7674.00
2022-07-25T08:35:05.974Z,8058.00
2022-07-25T08:36:24.327Z,8240.00
2022-07-25T08:37:03.551Z,8408.00
2022-07-25T08:38:03.293Z,8490.00
2022-07-25T08:39:03.535Z,8200.00
2022-07-25T08:40:03.277Z,8176.00
2022-07-25T08:41:03.510Z,8427.00
2022-07-25T08:42:05.462Z,8429.00
2022-07-25T08:43:04.485Z,8458.00
2022-07-25T08:44:03.645Z,8504.00
2022-07-25T08:45:03.478Z,8476.00
2022-07-25T08:46:23.279Z,8353.00
2022-07-25T08:47:03.497Z,8382.00
2022-07-25T08:48:03.215Z,8893.00
2022-07-25T08:49:03.507Z,9491.00
2022-07-25T08:50:04.604Z,9893.00
2022-07-25T08:51:03.476Z,9846.00
2022-07-25T08:52:03.210Z,9413.00
2022-07-25T08:53:31.594Z,8126.00
2022-07-25T08:54:04.540Z,7771.00
2022-07-25T08:55:03.442Z,7135.00
2022-07-25T08:56:23.200Z,7998.00
2022-07-25T08:57:03.432Z,8399.00
2022-07-25T08:58:03.172Z,8260.00
2022-07-25T08:59:03.411Z,8363.00
2022-07-25T09:00:03.157Z,8546.00
2022-07-25T09:01:03.414Z,8801.00
2022-07-25T09:02:03.200Z,8846.00
2022-07-25T09:03:03.451Z,8901.00
2022-07-25T09:04:03.321Z,8618.00
2022-07-25T09:05:03.419Z,8326.00
2022-07-25T09:06:23.183Z,8695.00
2022-07-25T09:07:07.797Z,9062.00
2022-07-25T09:08:03.186Z,9537.00
2022-07-25T09:09:03.437Z,10075.00
2022-07-25T09:10:03.198Z,10217.00
2022-07-25T09:11:02.939Z,10530.00
2022-07-25T09:12:03.185Z,9840.00
2022-07-25T09:13:02.946Z,10005.00
2022-07-25T09:14:03.265Z,10163.00
2022-07-25T09:15:02.928Z,9518.00
2022-07-25T09:16:23.207Z,9504.00
2022-07-25T09:17:02.980Z,9940.00
2022-07-25T09:18:03.223Z,9949.00
2022-07-25T09:19:04.957Z,10100.00
2022-07-25T09:20:03.202Z,9969.00
2022-07-25T09:21:02.978Z,9663.00
2022-07-25T09:22:05.216Z,9639.00
2022-07-25T09:23:02.953Z,9648.00
2022-07-25T09:24:03.297Z,9716.00
2022-07-25T09:25:02.946Z,9808.00
2022-07-25T09:26:23.197Z,9936.00
2022-07-25T09:27:02.922Z,10077.00
2022-07-25T09:28:03.154Z,10140.00
2022-07-25T09:29:02.907Z,10271.00
2022-07-25T09:30:03.152Z,10733.00
2022-07-25T09:31:02.947Z,11304.00
2022-07-25T09:32:03.151Z,11899.00
2022-07-25T09:33:02.886Z,12019.00
2022-07-25T09:34:03.391Z,12443.00
2022-07-25T09:35:02.878Z,12298.00
2022-07-25T09:36:23.137Z,11504.00
2022-07-25T09:37:02.867Z,11115.00
2022-07-25T09:38:03.111Z,11353.00
2022-07-25T09:39:02.882Z,8753.00
2022-07-25T09:40:02.714Z,5614.00
2022-07-25T09:41:02.888Z,10032.00
2022-07-25T09:42:02.628Z,9641.00
2022-07-25T09:43:02.880Z,7997.00
2022-07-25T09:44:02.627Z,10629.00
2022-07-25T09:45:02.865Z,11384.00
2022-07-25T09:46:22.681Z,12005.00
2022-07-25T09:47:02.851Z,11262.00
2022-07-25T09:48:04.590Z,13300.00
2022-07-25T09:49:02.891Z,9858.00
2022-07-25T09:50:02.739Z,12229.00
2022-07-25T09:51:02.823Z,13434.00
2022-07-25T09:52:02.575Z,8812.00
2022-07-25T09:53:02.873Z,12987.00
2022-07-25T09:54:02.865Z,13415.00
2022-07-25T09:55:02.854Z,13958.00
2022-07-25T09:56:22.594Z,16490.00
2022-07-25T09:57:02.810Z,19440.00
2022-07-25T09:58:02.560Z,23208.00
2022-07-25T09:59:02.800Z,25679.00
2022-07-25T10:00:02.563Z,11322.00
2022-07-25T10:01:02.926Z,25948.00
2022-07-25T10:02:02.622Z,10826.00
2022-07-25T10:03:02.874Z,15876.00
2022-07-25T10:04:02.587Z,19631.00
2022-07-25T10:05:02.830Z,11367.00
2022-07-25T10:06:22.599Z,10398.00
2022-07-25T10:07:01.830Z,10140.00
2022-07-25T10:08:02.597Z,40231.00
2022-07-25T10:09:02.336Z,38795.00
2022-07-25T10:10:02.622Z,38753.00
2022-07-25T10:11:02.325Z,39973.00
2022-07-25T10:12:02.566Z,39580.00
2022-07-25T10:13:05.242Z,18147.00
2022-07-25T10:14:03.809Z,33835.00
2022-07-25T10:15:02.308Z,28513.00
2022-07-25T10:16:22.638Z,36398.00
2022-07-25T10:17:02.373Z,36523.00
2022-07-25T10:18:02.528Z,42130.00
2022-07-25T10:19:02.271Z,26452.00
2022-07-25T10:20:02.508Z,7140.00
2022-07-25T10:21:09.786Z,8453.00
2022-07-25T10:22:03.557Z,39527.00
2022-07-25T10:23:02.268Z,36848.00
2022-07-25T10:24:02.558Z,25033.00
2022-07-25T10:25:02.278Z,33582.00
2022-07-25T10:26:22.519Z,36040.00
2022-07-25T10:27:02.242Z,38258.00
2022-07-25T10:28:02.490Z,11058.00
2022-07-25T10:29:02.240Z,10213.00
2022-07-25T10:30:02.489Z,33788.00
2022-07-25T10:31:02.275Z,36913.00
2022-07-25T10:32:02.715Z,36112.00
2022-07-25T10:33:02.463Z,35994.00
2022-07-25T10:34:02.182Z,36692.00
2022-07-25T10:35:02.432Z,39737.00
2022-07-25T10:36:22.212Z,40476.00
2022-07-25T10:37:02.415Z,43066.00
2022-07-25T10:38:02.166Z,16891.00
2022-07-25T10:39:02.404Z,11541.00
2022-07-25T10:40:02.158Z,17812.00
2022-07-25T10:41:02.410Z,8394.00
2022-07-25T10:42:02.163Z,8314.00
2022-07-25T10:43:02.403Z,9312.00
2022-07-25T10:44:02.160Z,16384.00
2022-07-25T10:45:02.389Z,14082.00
2022-07-25T10:46:22.222Z,18943.00
2022-07-25T10:47:02.387Z,20654.00
2022-07-25T10:48:02.131Z,16996.00
2022-07-25T10:49:02.444Z,23580.00
2022-07-25T10:50:29.667Z,18158.00
2022-07-25T10:51:02.415Z,31821.00
2022-07-25T10:52:02.162Z,27983.00
2022-07-25T10:53:01.916Z,49704.00
2022-07-25T10:54:02.154Z,30397.00
2022-07-25T10:55:01.904Z,35756.00
2022-07-25T10:56:22.156Z,12823.00
2022-07-25T10:57:01.883Z,17139.00
2022-07-25T10:58:17.244Z,42594.00
2022-07-25T10:59:02.928Z,39591.00
2022-07-25T11:00:02.108Z,24239.00
2022-07-25T11:01:01.858Z,18335.00
2022-07-25T11:02:02.242Z,11016.00
2022-07-25T11:03:01.905Z,12125.00
2022-07-25T11:04:02.114Z,14146.00
2022-07-25T11:05:01.898Z,13717.00
2022-07-25T11:06:22.141Z,11842.00
2022-07-25T11:07:01.870Z,11786.00
2022-07-25T11:08:21.059Z,16700.00
2022-07-25T11:09:02.929Z,17135.00
2022-07-25T11:10:02.169Z,16369.00
2022-07-25T11:11:01.896Z,40120.00
2022-07-25T11:12:02.129Z,44445.00
2022-07-25T11:13:01.873Z,37613.00
2022-07-25T11:14:02.110Z,47110.00
2022-07-25T11:15:01.865Z,26096.00
2022-07-25T11:16:22.175Z,48477.00
2022-07-25T11:17:01.939Z,26789.00
2022-07-25T11:18:04.082Z,53739.00
2022-07-25T11:19:01.831Z,50920.00
2022-07-25T11:20:02.072Z,21272.00
2022-07-25T11:21:06.264Z,35942.00
2022-07-25T11:22:03.070Z,18279.00
2022-07-25T11:23:01.826Z,14745.00
2022-07-25T11:24:02.101Z,11803.00
2022-07-25T11:25:01.837Z,8639.00
2022-07-25T11:26:22.099Z,9370.00
2022-07-25T11:27:01.830Z,10534.00
2022-07-25T11:28:01.580Z,7598.00
2022-07-25T11:29:01.833Z,7477.00
2022-07-25T11:30:01.590Z,6264.00
2022-07-25T11:31:01.874Z,5526.00
2022-07-25T11:32:01.625Z,6126.00
2022-07-25T11:33:01.863Z,7863.00
2022-07-25T11:34:01.577Z,10964.00
2022-07-25T11:35:01.801Z,10962.00
2022-07-25T11:36:23.597Z,28240.00
2022-07-25T11:37:01.966Z,12639.00
2022-07-25T11:38:01.754Z,10758.00
2022-07-25T11:39:01.503Z,9861.00
2022-07-25T11:40:01.749Z,9137.00
2022-07-25T11:41:01.526Z,7687.00
2022-07-25T11:42:01.791Z,8221.00
2022-07-25T11:43:01.531Z,8395.00
2022-07-25T11:44:01.769Z,6018.00
2022-07-25T11:45:01.516Z,6772.00
2022-07-25T11:46:22.556Z,7317.00
2022-07-25T11:47:01.576Z,7240.00
2022-07-25T11:48:01.825Z,8089.00
2022-07-25T11:49:01.621Z,8702.00
2022-07-25T11:50:01.827Z,10253.00
2022-07-25T11:51:01.569Z,8908.00
2022-07-25T11:52:01.826Z,9491.00
2022-07-25T11:53:01.584Z,10701.00
2022-07-25T11:54:03.365Z,9485.00
2022-07-25T11:55:01.617Z,9342.00
2022-07-25T11:56:41.786Z,9121.00
2022-07-25T11:57:01.773Z,8239.00
2022-07-25T11:58:01.544Z,6061.00
2022-07-25T11:59:01.404Z,4774.00
2022-07-25T12:00:01.671Z,4173.00
2022-07-25T12:01:01.512Z,4583.00
2022-07-25T12:02:01.805Z,6129.00
2022-07-25T12:03:01.591Z,7453.00
2022-07-25T12:04:01.226Z,8385.00
2022-07-25T12:05:03.463Z,8056.00
2022-07-25T12:06:21.296Z,6890.00
2022-07-25T12:07:02.320Z,6476.00
2022-07-25T12:08:02.837Z,5427.00
2022-07-25T12:09:04.099Z,5108.00
2022-07-25T12:10:03.001Z,5009.00
2022-07-25T12:11:03.432Z,4788.00
2022-07-25T12:12:03.290Z,4193.00
2022-07-25T12:13:02.570Z,4195.00
2022-07-25T12:14:03.372Z,4817.00
2022-07-25T12:15:03.171Z,5599.00
2022-07-25T12:16:21.585Z,7024.00
2022-07-25T12:17:03.332Z,7414.00
2022-07-25T12:18:03.537Z,7593.00
2022-07-25T12:19:01.810Z,8603.00
2022-07-25T12:20:06.657Z,9318.00
2022-07-25T12:21:03.611Z,9202.00
2022-07-25T12:22:02.449Z,8867.00
2022-07-25T12:23:03.209Z,7799.00
2022-07-25T12:24:02.520Z,7562.00
2022-07-25T12:25:00.821Z,7742.00